Aeroporto :
LOGIN :

Iscrizione | Disclaimer

   EN    FR    IT 

 










Sommario :    VFR   VFR Marginale   IFR   IFR Intensivo   IFR Molto Intensivo
Visibilità : 
Base nubi : 
>= 8 km
>= 3000ft
5 / 8 km
1000 / 3000 ft
1500m / 5 km
500 / 1000 ft
800 / 1500m
200 / 500 ft
< 800m
< 200 ft
Simboli :   Temporali  Nebbia  Neve Forte  Precipitazioni Forti  Vento > 20 kt
SIGMETs :   Varie  Temporali  Ghiacco  Turbolenza  Onda orograficha  Ceneri Vulcaniche






- Altitudine del aeroporto : 230 ft
- Codice IATA : VAR


LBWN - Varna

ULTIMO METAR :
  • 021200Z 11009KT 9999 FEW013 FEW030TCU OVC045 16/12 Q1008 NOSIG

METARs OBSOLETI :
  • 021130Z 11008KT 9999 VCSH FEW011 SCT027CB BKN041 16/13 Q1008 NOSIG
  • 021100Z 09004KT 9999 -SHRA FEW014 SCT029CB OVC035 15/13 Q1008 RESHRA NOSIG
  • 021030Z 10009KT 9999 -SHRA FEW014 SCT029CB BKN040 15/13 Q1008 TEMPO 5000 SHRA SCT030CB
  • 021000Z 11009KT 9999 -SHRA SCT029TCU BKN040 16/13 Q1008 TEMPO 5000 TSRA SCT030CB
  • 020930Z 14008KT 8000 -SHRA FEW017 SCT033TCU BKN045 15/12 Q1008 RESHRA TEMPO 5000 SHRA

TAF TAF LBWN
Valido dal 02 a 12 ore il 03 a 12 ore UTC


021100Z 0212/0312 11010KT 9999 SCT025 BKN040
TEMPO 0212/0220 5000 TSRA BKN015 FEW025CB BKN030
BECMG 0220/0222 30010KT
PROB30
TEMPO 0222/0302 5000 SHRA FEW020CB BKN040
BECMG 0302/0303 VRB04KT 6000 NSC
TEMPO 0303/0306 BKN010



MetMap, La meteo Aeronautica in un colpo d'occhio ! - Copyright ORBIFLY Dicembre 2007 - Disclaimer

ORBIFLY MET'MAP TEAM :

Programmazione e sviluppo : Alexandra Zaïnal
Concezione : Baudouin d'Aumeries
Aiuto per la programmazione : Marc-Olivier Méhu
Supporto tecnico e logistico : Manuel Goepfert
Aiuto per la traduzione : Arnaldo La Scala

Contatto : metmap@orbifly.com




FONTI E CREDITI :

   NOAA